sensor_id;sensor_type;location;lat;lon;timestamp;temperature;humidity
46720;DHT22;32452;51.382;-0.002;2024-01-25T00:01:44;8.10;99.90
46720;DHT22;32452;51.382;-0.002;2024-01-25T00:04:30;8.10;99.90
46720;DHT22;32452;51.382;-0.002;2024-01-25T00:07:16;8.00;99.90
46720;DHT22;32452;51.382;-0.002;2024-01-25T00:10:02;8.00;99.90
46720;DHT22;32452;51.382;-0.002;2024-01-25T00:12:52;8.00;99.90
46720;DHT22;32452;51.382;-0.002;2024-01-25T00:15:38;8.00;99.90
46720;DHT22;32452;51.382;-0.002;2024-01-25T00:18:23;7.90;99.90
46720;DHT22;32452;51.382;-0.002;2024-01-25T00:21:09;8.00;99.90
46720;DHT22;32452;51.382;-0.002;2024-01-25T00:23:55;7.90;99.90
46720;DHT22;32452;51.382;-0.002;2024-01-25T00:26:40;7.90;99.90
46720;DHT22;32452;51.382;-0.002;2024-01-25T00:29:26;7.90;99.90
46720;DHT22;32452;51.382;-0.002;2024-01-25T00:32:12;7.90;99.90
46720;DHT22;32452;51.382;-0.002;2024-01-25T00:34:57;7.90;99.90
46720;DHT22;32452;51.382;-0.002;2024-01-25T00:37:44;7.90;99.90
46720;DHT22;32452;51.382;-0.002;2024-01-25T00:40:29;7.90;99.90
46720;DHT22;32452;51.382;-0.002;2024-01-25T00:43:16;7.90;99.90
46720;DHT22;32452;51.382;-0.002;2024-01-25T00:46:02;7.80;99.90
46720;DHT22;32452;51.382;-0.002;2024-01-25T00:48:53;7.80;99.90
46720;DHT22;32452;51.382;-0.002;2024-01-25T00:51:45;7.80;99.90
46720;DHT22;32452;51.382;-0.002;2024-01-25T00:54:32;7.80;99.90
46720;DHT22;32452;51.382;-0.002;2024-01-25T00:57:18;7.80;99.90
46720;DHT22;32452;51.382;-0.002;2024-01-25T01:00:04;7.80;99.90
46720;DHT22;32452;51.382;-0.002;2024-01-25T01:02:50;7.80;99.90
46720;DHT22;32452;51.382;-0.002;2024-01-25T01:05:37;7.70;99.90
46720;DHT22;32452;51.382;-0.002;2024-01-25T01:08:24;7.70;99.90
46720;DHT22;32452;51.382;-0.002;2024-01-25T01:11:10;7.70;99.90
46720;DHT22;32452;51.382;-0.002;2024-01-25T01:13:56;7.60;99.90
46720;DHT22;32452;51.382;-0.002;2024-01-25T01:16:41;7.50;99.90
46720;DHT22;32452;51.382;-0.002;2024-01-25T01:19:27;7.50;99.90
46720;DHT22;32452;51.382;-0.002;2024-01-25T01:22:13;7.50;99.90
46720;DHT22;32452;51.382;-0.002;2024-01-25T01:24:58;7.50;99.90
46720;DHT22;32452;51.382;-0.002;2024-01-25T01:27:44;7.50;99.90
46720;DHT22;32452;51.382;-0.002;2024-01-25T01:30:29;7.40;99.90
46720;DHT22;32452;51.382;-0.002;2024-01-25T01:33:15;7.40;99.90
46720;DHT22;32452;51.382;-0.002;2024-01-25T01:36:00;7.40;99.90
46720;DHT22;32452;51.382;-0.002;2024-01-25T01:38:46;7.30;99.90
46720;DHT22;32452;51.382;-0.002;2024-01-25T01:41:32;7.30;99.90
46720;DHT22;32452;51.382;-0.002;2024-01-25T01:44:18;7.30;99.90
46720;DHT22;32452;51.382;-0.002;2024-01-25T01:47:03;7.20;99.90
46720;DHT22;32452;51.382;-0.002;2024-01-25T01:49:49;7.20;99.90
46720;DHT22;32452;51.382;-0.002;2024-01-25T01:52:36;7.20;99.90
46720;DHT22;32452;51.382;-0.002;2024-01-25T01:55:22;7.20;99.90
46720;DHT22;32452;51.382;-0.002;2024-01-25T01:58:09;7.10;99.90
46720;DHT22;32452;51.382;-0.002;2024-01-25T02:00:55;7.10;99.90
46720;DHT22;32452;51.382;-0.002;2024-01-25T02:03:42;7.00;99.90
46720;DHT22;32452;51.382;-0.002;2024-01-25T02:06:28;7.00;99.90
46720;DHT22;32452;51.382;-0.002;2024-01-25T02:09:13;7.00;99.90
46720;DHT22;32452;51.382;-0.002;2024-01-25T02:12:03;7.00;99.90
46720;DHT22;32452;51.382;-0.002;2024-01-25T02:14:49;6.90;99.90
46720;DHT22;32452;51.382;-0.002;2024-01-25T02:17:36;6.90;99.90
46720;DHT22;32452;51.382;-0.002;2024-01-25T02:20:22;6.80;99.90
46720;DHT22;32452;51.382;-0.002;2024-01-25T02:23:07;6.80;99.90
46720;DHT22;32452;51.382;-0.002;2024-01-25T02:25:53;6.80;99.90
46720;DHT22;32452;51.382;-0.002;2024-01-25T02:28:38;6.70;99.90
46720;DHT22;32452;51.382;-0.002;2024-01-25T02:31:24;6.70;99.90
46720;DHT22;32452;51.382;-0.002;2024-01-25T02:34:10;6.70;99.90
46720;DHT22;32452;51.382;-0.002;2024-01-25T02:36:56;6.60;99.90
46720;DHT22;32452;51.382;-0.002;2024-01-25T02:39:42;6.60;99.90
46720;DHT22;32452;51.382;-0.002;2024-01-25T02:42:28;6.60;99.90
46720;DHT22;32452;51.382;-0.002;2024-01-25T02:45:13;6.60;99.90
46720;DHT22;32452;51.382;-0.002;2024-01-25T02:47:59;6.50;99.90
46720;DHT22;32452;51.382;-0.002;2024-01-25T02:50:45;6.50;99.90
46720;DHT22;32452;51.382;-0.002;2024-01-25T02:53:31;6.50;99.90
46720;DHT22;32452;51.382;-0.002;2024-01-25T02:56:16;6.50;99.90
46720;DHT22;32452;51.382;-0.002;2024-01-25T02:59:02;6.50;99.90
46720;DHT22;32452;51.382;-0.002;2024-01-25T03:01:49;6.50;99.90
46720;DHT22;32452;51.382;-0.002;2024-01-25T03:04:35;6.50;99.90
46720;DHT22;32452;51.382;-0.002;2024-01-25T03:07:21;6.50;99.90
46720;DHT22;32452;51.382;-0.002;2024-01-25T03:10:07;6.50;99.90
46720;DHT22;32452;51.382;-0.002;2024-01-25T03:12:53;6.50;99.90
46720;DHT22;32452;51.382;-0.002;2024-01-25T03:15:40;6.50;99.90
46720;DHT22;32452;51.382;-0.002;2024-01-25T03:18:25;6.60;99.90
46720;DHT22;32452;51.382;-0.002;2024-01-25T03:21:12;6.60;99.90
46720;DHT22;32452;51.382;-0.002;2024-01-25T03:23:58;6.60;99.90
46720;DHT22;32452;51.382;-0.002;2024-01-25T03:26:44;6.60;99.90
46720;DHT22;32452;51.382;-0.002;2024-01-25T03:29:29;6.60;99.90
46720;DHT22;32452;51.382;-0.002;2024-01-25T03:32:14;6.60;99.90
46720;DHT22;32452;51.382;-0.002;2024-01-25T03:35:00;6.70;99.90
46720;DHT22;32452;51.382;-0.002;2024-01-25T03:37:46;6.70;99.90
46720;DHT22;32452;51.382;-0.002;2024-01-25T03:40:33;6.70;99.90
46720;DHT22;32452;51.382;-0.002;2024-01-25T03:43:19;6.70;99.90
46720;DHT22;32452;51.382;-0.002;2024-01-25T03:46:09;6.70;99.90
46720;DHT22;32452;51.382;-0.002;2024-01-25T03:48:55;6.80;99.90
46720;DHT22;32452;51.382;-0.002;2024-01-25T03:51:41;6.80;99.90
46720;DHT22;32452;51.382;-0.002;2024-01-25T03:54:28;6.80;99.90
46720;DHT22;32452;51.382;-0.002;2024-01-25T03:57:14;6.80;99.90
46720;DHT22;32452;51.382;-0.002;2024-01-25T04:00:01;6.80;99.90
46720;DHT22;32452;51.382;-0.002;2024-01-25T04:02:47;6.80;99.90
46720;DHT22;32452;51.382;-0.002;2024-01-25T04:05:33;6.80;99.90
46720;DHT22;32452;51.382;-0.002;2024-01-25T04:08:19;6.80;99.90
46720;DHT22;32452;51.382;-0.002;2024-01-25T04:11:05;6.80;99.90
46720;DHT22;32452;51.382;-0.002;2024-01-25T04:13:54;6.80;99.90
46720;DHT22;32452;51.382;-0.002;2024-01-25T04:16:40;6.90;99.90
46720;DHT22;32452;51.382;-0.002;2024-01-25T04:19:26;6.90;99.90
46720;DHT22;32452;51.382;-0.002;2024-01-25T04:22:12;7.00;99.90
46720;DHT22;32452;51.382;-0.002;2024-01-25T04:24:58;7.00;99.90
46720;DHT22;32452;51.382;-0.002;2024-01-25T04:27:44;7.00;99.90
46720;DHT22;32452;51.382;-0.002;2024-01-25T04:30:30;7.10;99.90
46720;DHT22;32452;51.382;-0.002;2024-01-25T04:33:18;7.10;99.90
46720;DHT22;32452;51.382;-0.002;2024-01-25T04:36:04;7.10;99.90
46720;DHT22;32452;51.382;-0.002;2024-01-25T04:38:50;7.20;99.90
46720;DHT22;32452;51.382;-0.002;2024-01-25T04:41:36;7.30;99.90
46720;DHT22;32452;51.382;-0.002;2024-01-25T04:44:22;7.30;99.90
46720;DHT22;32452;51.382;-0.002;2024-01-25T04:47:09;7.40;99.90
46720;DHT22;32452;51.382;-0.002;2024-01-25T04:49:54;7.40;99.90
46720;DHT22;32452;51.382;-0.002;2024-01-25T04:52:40;7.50;99.90
46720;DHT22;32452;51.382;-0.002;2024-01-25T04:55:26;7.50;99.90
46720;DHT22;32452;51.382;-0.002;2024-01-25T04:58:11;7.60;99.90
46720;DHT22;32452;51.382;-0.002;2024-01-25T05:00:57;7.60;99.90
46720;DHT22;32452;51.382;-0.002;2024-01-25T05:03:43;7.70;99.90
46720;DHT22;32452;51.382;-0.002;2024-01-25T05:06:29;7.70;99.90
46720;DHT22;32452;51.382;-0.002;2024-01-25T05:09:14;7.80;99.90
46720;DHT22;32452;51.382;-0.002;2024-01-25T05:12:00;7.80;99.90
46720;DHT22;32452;51.382;-0.002;2024-01-25T05:14:47;7.80;99.90
46720;DHT22;32452;51.382;-0.002;2024-01-25T05:17:33;7.90;99.90
46720;DHT22;32452;51.382;-0.002;2024-01-25T05:20:19;7.90;99.90
46720;DHT22;32452;51.382;-0.002;2024-01-25T05:23:05;7.90;99.90
46720;DHT22;32452;51.382;-0.002;2024-01-25T05:25:52;7.90;99.90
46720;DHT22;32452;51.382;-0.002;2024-01-25T05:28:37;7.90;99.90
46720;DHT22;32452;51.382;-0.002;2024-01-25T05:31:23;7.90;99.90
46720;DHT22;32452;51.382;-0.002;2024-01-25T05:34:09;7.90;99.90
46720;DHT22;32452;51.382;-0.002;2024-01-25T05:36:55;8.00;99.90
46720;DHT22;32452;51.382;-0.002;2024-01-25T05:39:40;8.00;99.90
46720;DHT22;32452;51.382;-0.002;2024-01-25T05:42:26;8.10;99.90
46720;DHT22;32452;51.382;-0.002;2024-01-25T05:45:12;8.10;99.90
46720;DHT22;32452;51.382;-0.002;2024-01-25T05:47:58;8.20;99.90
46720;DHT22;32452;51.382;-0.002;2024-01-25T05:50:44;8.20;99.90
46720;DHT22;32452;51.382;-0.002;2024-01-25T05:53:29;8.20;99.90
46720;DHT22;32452;51.382;-0.002;2024-01-25T05:56:15;8.30;99.90
46720;DHT22;32452;51.382;-0.002;2024-01-25T05:59:00;8.30;99.90
46720;DHT22;32452;51.382;-0.002;2024-01-25T06:01:46;8.40;99.90
46720;DHT22;32452;51.382;-0.002;2024-01-25T06:04:32;8.40;99.90
46720;DHT22;32452;51.382;-0.002;2024-01-25T06:07:18;8.40;99.90
46720;DHT22;32452;51.382;-0.002;2024-01-25T06:10:06;8.40;99.90
46720;DHT22;32452;51.382;-0.002;2024-01-25T06:12:52;8.40;99.90
46720;DHT22;32452;51.382;-0.002;2024-01-25T06:15:38;8.50;99.90
46720;DHT22;32452;51.382;-0.002;2024-01-25T06:18:24;8.60;99.90
46720;DHT22;32452;51.382;-0.002;2024-01-25T06:21:10;8.60;99.90
46720;DHT22;32452;51.382;-0.002;2024-01-25T06:23:55;8.60;99.90
46720;DHT22;32452;51.382;-0.002;2024-01-25T06:26:41;8.70;99.90
46720;DHT22;32452;51.382;-0.002;2024-01-25T06:29:27;8.60;99.90
46720;DHT22;32452;51.382;-0.002;2024-01-25T06:32:12;8.70;99.90
46720;DHT22;32452;51.382;-0.002;2024-01-25T06:35:10;8.70;99.90
46720;DHT22;32452;51.382;-0.002;2024-01-25T06:37:56;8.70;99.90
46720;DHT22;32452;51.382;-0.002;2024-01-25T06:40:41;8.70;99.90
46720;DHT22;32452;51.382;-0.002;2024-01-25T06:43:27;8.80;99.90
46720;DHT22;32452;51.382;-0.002;2024-01-25T06:46:12;8.80;99.90
46720;DHT22;32452;51.382;-0.002;2024-01-25T06:48:58;8.80;99.90
46720;DHT22;32452;51.382;-0.002;2024-01-25T06:51:44;8.80;99.90
46720;DHT22;32452;51.382;-0.002;2024-01-25T06:54:34;8.80;99.90
46720;DHT22;32452;51.382;-0.002;2024-01-25T06:57:20;8.80;99.90
46720;DHT22;32452;51.382;-0.002;2024-01-25T07:00:06;8.80;99.90
46720;DHT22;32452;51.382;-0.002;2024-01-25T07:02:53;8.80;99.90
46720;DHT22;32452;51.382;-0.002;2024-01-25T07:05:40;8.80;99.90
46720;DHT22;32452;51.382;-0.002;2024-01-25T07:08:26;8.90;99.90
46720;DHT22;32452;51.382;-0.002;2024-01-25T07:11:11;8.80;99.90
46720;DHT22;32452;51.382;-0.002;2024-01-25T07:13:57;8.80;99.90
46720;DHT22;32452;51.382;-0.002;2024-01-25T07:16:43;8.90;99.90
46720;DHT22;32452;51.382;-0.002;2024-01-25T07:19:29;8.80;99.90
46720;DHT22;32452;51.382;-0.002;2024-01-25T07:22:14;8.90;99.90
46720;DHT22;32452;51.382;-0.002;2024-01-25T07:25:01;8.90;99.90
46720;DHT22;32452;51.382;-0.002;2024-01-25T07:27:47;8.90;99.90
46720;DHT22;32452;51.382;-0.002;2024-01-25T07:30:33;8.90;99.90
46720;DHT22;32452;51.382;-0.002;2024-01-25T07:33:18;9.00;99.90
46720;DHT22;32452;51.382;-0.002;2024-01-25T07:36:04;9.00;99.90
46720;DHT22;32452;51.382;-0.002;2024-01-25T07:38:50;9.00;99.90
46720;DHT22;32452;51.382;-0.002;2024-01-25T07:41:36;9.00;99.90
46720;DHT22;32452;51.382;-0.002;2024-01-25T07:44:23;9.00;99.90
46720;DHT22;32452;51.382;-0.002;2024-01-25T07:47:08;9.00;99.90
46720;DHT22;32452;51.382;-0.002;2024-01-25T07:49:54;9.00;99.90
46720;DHT22;32452;51.382;-0.002;2024-01-25T07:52:40;9.00;99.90
46720;DHT22;32452;51.382;-0.002;2024-01-25T07:55:25;9.00;99.90
46720;DHT22;32452;51.382;-0.002;2024-01-25T07:58:11;9.00;99.90
46720;DHT22;32452;51.382;-0.002;2024-01-25T08:00:57;9.10;99.90
46720;DHT22;32452;51.382;-0.002;2024-01-25T08:03:43;9.10;99.90
46720;DHT22;32452;51.382;-0.002;2024-01-25T08:06:29;9.10;99.90
46720;DHT22;32452;51.382;-0.002;2024-01-25T08:09:14;9.10;99.90
46720;DHT22;32452;51.382;-0.002;2024-01-25T08:11:59;9.10;99.90
46720;DHT22;32452;51.382;-0.002;2024-01-25T08:14:45;9.10;99.90
46720;DHT22;32452;51.382;-0.002;2024-01-25T08:17:32;9.10;99.90
46720;DHT22;32452;51.382;-0.002;2024-01-25T08:20:19;9.10;99.90
46720;DHT22;32452;51.382;-0.002;2024-01-25T08:23:06;9.10;99.90
46720;DHT22;32452;51.382;-0.002;2024-01-25T08:25:54;9.10;99.90
46720;DHT22;32452;51.382;-0.002;2024-01-25T08:28:40;9.10;99.90
46720;DHT22;32452;51.382;-0.002;2024-01-25T08:31:27;9.10;99.90
46720;DHT22;32452;51.382;-0.002;2024-01-25T08:34:13;9.10;99.90
46720;DHT22;32452;51.382;-0.002;2024-01-25T08:37:00;9.20;99.90
46720;DHT22;32452;51.382;-0.002;2024-01-25T08:39:45;9.20;99.90
46720;DHT22;32452;51.382;-0.002;2024-01-25T08:42:34;9.30;99.90
46720;DHT22;32452;51.382;-0.002;2024-01-25T08:45:20;9.30;99.90
46720;DHT22;32452;51.382;-0.002;2024-01-25T08:48:06;9.30;99.90
46720;DHT22;32452;51.382;-0.002;2024-01-25T08:50:54;9.40;99.90
46720;DHT22;32452;51.382;-0.002;2024-01-25T08:53:40;9.40;99.90
46720;DHT22;32452;51.382;-0.002;2024-01-25T08:56:26;9.40;99.90
46720;DHT22;32452;51.382;-0.002;2024-01-25T08:59:11;9.40;99.90
46720;DHT22;32452;51.382;-0.002;2024-01-25T09:01:57;9.50;99.90
46720;DHT22;32452;51.382;-0.002;2024-01-25T09:04:43;9.50;99.90
46720;DHT22;32452;51.382;-0.002;2024-01-25T09:07:29;9.50;99.90
46720;DHT22;32452;51.382;-0.002;2024-01-25T09:10:15;9.50;99.90
46720;DHT22;32452;51.382;-0.002;2024-01-25T09:13:00;9.50;99.90
46720;DHT22;32452;51.382;-0.002;2024-01-25T09:15:46;9.60;99.90
46720;DHT22;32452;51.382;-0.002;2024-01-25T09:18:32;9.70;99.90
46720;DHT22;32452;51.382;-0.002;2024-01-25T09:21:18;9.70;99.90
46720;DHT22;32452;51.382;-0.002;2024-01-25T09:24:04;9.80;99.90
46720;DHT22;32452;51.382;-0.002;2024-01-25T09:26:49;9.80;99.90
46720;DHT22;32452;51.382;-0.002;2024-01-25T09:29:36;9.90;99.90
46720;DHT22;32452;51.382;-0.002;2024-01-25T09:32:23;9.90;99.90
46720;DHT22;32452;51.382;-0.002;2024-01-25T09:35:09;10.00;99.90
46720;DHT22;32452;51.382;-0.002;2024-01-25T09:37:55;10.00;99.90
46720;DHT22;32452;51.382;-0.002;2024-01-25T09:40:41;10.10;99.90
46720;DHT22;32452;51.382;-0.002;2024-01-25T09:43:27;10.10;99.90
46720;DHT22;32452;51.382;-0.002;2024-01-25T09:46:14;10.10;99.90
46720;DHT22;32452;51.382;-0.002;2024-01-25T09:49:02;10.20;99.90
46720;DHT22;32452;51.382;-0.002;2024-01-25T09:51:50;10.20;99.90
46720;DHT22;32452;51.382;-0.002;2024-01-25T09:54:56;10.30;99.90
46720;DHT22;32452;51.382;-0.002;2024-01-25T09:57:45;10.40;99.90
46720;DHT22;32452;51.382;-0.002;2024-01-25T10:00:31;10.40;99.90
46720;DHT22;32452;51.382;-0.002;2024-01-25T10:03:18;10.50;99.90
46720;DHT22;32452;51.382;-0.002;2024-01-25T10:06:05;10.50;99.90
46720;DHT22;32452;51.382;-0.002;2024-01-25T10:08:53;10.50;99.90
46720;DHT22;32452;51.382;-0.002;2024-01-25T10:11:38;10.60;99.90
46720;DHT22;32452;51.382;-0.002;2024-01-25T10:14:31;10.60;99.90
46720;DHT22;32452;51.382;-0.002;2024-01-25T10:17:17;10.70;99.90
46720;DHT22;32452;51.382;-0.002;2024-01-25T10:20:05;10.70;99.90
46720;DHT22;32452;51.382;-0.002;2024-01-25T10:22:58;10.80;99.90
46720;DHT22;32452;51.382;-0.002;2024-01-25T10:25:46;10.90;99.90
46720;DHT22;32452;51.382;-0.002;2024-01-25T10:28:32;11.00;99.90
46720;DHT22;32452;51.382;-0.002;2024-01-25T10:31:18;11.10;99.90
46720;DHT22;32452;51.382;-0.002;2024-01-25T10:34:05;11.20;99.90
46720;DHT22;32452;51.382;-0.002;2024-01-25T10:36:51;11.20;99.90
46720;DHT22;32452;51.382;-0.002;2024-01-25T10:39:38;11.30;99.90
46720;DHT22;32452;51.382;-0.002;2024-01-25T10:42:25;11.30;99.90
46720;DHT22;32452;51.382;-0.002;2024-01-25T10:45:12;11.30;99.90
46720;DHT22;32452;51.382;-0.002;2024-01-25T10:47:59;11.30;99.90
46720;DHT22;32452;51.382;-0.002;2024-01-25T10:50:46;11.30;99.90
46720;DHT22;32452;51.382;-0.002;2024-01-25T10:53:34;11.30;99.90
46720;DHT22;32452;51.382;-0.002;2024-01-25T10:56:20;11.30;99.90
46720;DHT22;32452;51.382;-0.002;2024-01-25T10:59:07;11.40;99.90
46720;DHT22;32452;51.382;-0.002;2024-01-25T11:01:54;11.50;99.90
46720;DHT22;32452;51.382;-0.002;2024-01-25T11:04:41;11.50;99.90
46720;DHT22;32452;51.382;-0.002;2024-01-25T11:07:48;11.50;99.90
46720;DHT22;32452;51.382;-0.002;2024-01-25T11:10:35;11.60;99.90
46720;DHT22;32452;51.382;-0.002;2024-01-25T11:13:25;11.70;99.90
46720;DHT22;32452;51.382;-0.002;2024-01-25T11:16:26;11.70;99.90
46720;DHT22;32452;51.382;-0.002;2024-01-25T11:19:22;11.80;99.90
46720;DHT22;32452;51.382;-0.002;2024-01-25T11:22:11;11.80;99.90
46720;DHT22;32452;51.382;-0.002;2024-01-25T11:24:57;11.80;99.90
46720;DHT22;32452;51.382;-0.002;2024-01-25T11:27:43;11.90;99.90
46720;DHT22;32452;51.382;-0.002;2024-01-25T11:30:31;11.90;99.90
46720;DHT22;32452;51.382;-0.002;2024-01-25T11:33:18;12.00;99.90
46720;DHT22;32452;51.382;-0.002;2024-01-25T11:36:05;12.00;99.90
46720;DHT22;32452;51.382;-0.002;2024-01-25T11:38:51;12.10;99.90
46720;DHT22;32452;51.382;-0.002;2024-01-25T11:41:37;12.20;99.90
46720;DHT22;32452;51.382;-0.002;2024-01-25T11:44:22;12.30;99.90
46720;DHT22;32452;51.382;-0.002;2024-01-25T11:47:10;12.40;99.90
46720;DHT22;32452;51.382;-0.002;2024-01-25T11:49:56;12.50;99.90
46720;DHT22;32452;51.382;-0.002;2024-01-25T11:52:42;12.60;99.90
46720;DHT22;32452;51.382;-0.002;2024-01-25T11:55:28;12.60;99.90
46720;DHT22;32452;51.382;-0.002;2024-01-25T11:58:14;12.60;99.90
46720;DHT22;32452;51.382;-0.002;2024-01-25T12:00:59;12.70;99.90
46720;DHT22;32452;51.382;-0.002;2024-01-25T12:03:46;12.80;99.90
46720;DHT22;32452;51.382;-0.002;2024-01-25T12:06:31;13.00;99.90
46720;DHT22;32452;51.382;-0.002;2024-01-25T12:09:17;13.10;99.90
46720;DHT22;32452;51.382;-0.002;2024-01-25T12:12:04;13.30;99.90
46720;DHT22;32452;51.382;-0.002;2024-01-25T12:14:50;13.40;99.90
46720;DHT22;32452;51.382;-0.002;2024-01-25T12:17:38;13.50;99.90
46720;DHT22;32452;51.382;-0.002;2024-01-25T12:20:29;13.60;99.90
46720;DHT22;32452;51.382;-0.002;2024-01-25T12:23:16;13.60;99.90
46720;DHT22;32452;51.382;-0.002;2024-01-25T12:26:09;13.60;99.90
46720;DHT22;32452;51.382;-0.002;2024-01-25T12:29:02;13.50;99.90
46720;DHT22;32452;51.382;-0.002;2024-01-25T12:31:50;13.40;99.90
46720;DHT22;32452;51.382;-0.002;2024-01-25T12:34:36;13.30;99.90
46720;DHT22;32452;51.382;-0.002;2024-01-25T12:37:23;13.20;99.90
46720;DHT22;32452;51.382;-0.002;2024-01-25T12:40:09;13.10;99.90
46720;DHT22;32452;51.382;-0.002;2024-01-25T12:42:55;13.00;99.90
46720;DHT22;32452;51.382;-0.002;2024-01-25T12:45:41;13.00;99.90
46720;DHT22;32452;51.382;-0.002;2024-01-25T12:48:27;13.00;99.90
46720;DHT22;32452;51.382;-0.002;2024-01-25T12:51:13;13.00;99.90
46720;DHT22;32452;51.382;-0.002;2024-01-25T12:53:58;13.00;99.90
46720;DHT22;32452;51.382;-0.002;2024-01-25T12:56:44;13.00;99.90
46720;DHT22;32452;51.382;-0.002;2024-01-25T12:59:35;13.10;99.90
46720;DHT22;32452;51.382;-0.002;2024-01-25T13:02:22;13.00;99.90
46720;DHT22;32452;51.382;-0.002;2024-01-25T13:05:07;12.90;99.90
46720;DHT22;32452;51.382;-0.002;2024-01-25T13:07:54;12.90;99.90
46720;DHT22;32452;51.382;-0.002;2024-01-25T13:10:40;12.80;99.90
46720;DHT22;32452;51.382;-0.002;2024-01-25T13:13:25;12.70;99.90
46720;DHT22;32452;51.382;-0.002;2024-01-25T13:16:11;12.60;99.90
46720;DHT22;32452;51.382;-0.002;2024-01-25T13:18:56;12.60;99.90
46720;DHT22;32452;51.382;-0.002;2024-01-25T13:21:43;12.60;99.90
46720;DHT22;32452;51.382;-0.002;2024-01-25T13:24:29;12.60;99.90
46720;DHT22;32452;51.382;-0.002;2024-01-25T13:27:17;12.60;99.90
46720;DHT22;32452;51.382;-0.002;2024-01-25T13:30:04;12.50;99.90
46720;DHT22;32452;51.382;-0.002;2024-01-25T13:32:50;12.50;99.90
46720;DHT22;32452;51.382;-0.002;2024-01-25T13:35:36;12.60;99.90
46720;DHT22;32452;51.382;-0.002;2024-01-25T13:38:21;12.70;99.90
46720;DHT22;32452;51.382;-0.002;2024-01-25T13:41:07;12.80;99.90
46720;DHT22;32452;51.382;-0.002;2024-01-25T13:43:53;12.90;99.90
46720;DHT22;32452;51.382;-0.002;2024-01-25T13:46:39;13.10;99.90
46720;DHT22;32452;51.382;-0.002;2024-01-25T13:49:24;13.20;99.90
46720;DHT22;32452;51.382;-0.002;2024-01-25T13:52:17;13.40;99.90
46720;DHT22;32452;51.382;-0.002;2024-01-25T13:55:04;13.60;99.90
46720;DHT22;32452;51.382;-0.002;2024-01-25T13:57:50;13.70;99.90
46720;DHT22;32452;51.382;-0.002;2024-01-25T14:00:36;13.90;99.90
46720;DHT22;32452;51.382;-0.002;2024-01-25T14:03:22;13.90;99.90
46720;DHT22;32452;51.382;-0.002;2024-01-25T14:06:07;13.90;99.90
46720;DHT22;32452;51.382;-0.002;2024-01-25T14:08:55;13.90;99.90
46720;DHT22;32452;51.382;-0.002;2024-01-25T14:11:41;13.80;99.90
46720;DHT22;32452;51.382;-0.002;2024-01-25T14:14:27;13.70;99.90
46720;DHT22;32452;51.382;-0.002;2024-01-25T14:17:13;13.60;99.90
46720;DHT22;32452;51.382;-0.002;2024-01-25T14:19:58;13.40;99.90
46720;DHT22;32452;51.382;-0.002;2024-01-25T14:22:45;13.30;99.90
46720;DHT22;32452;51.382;-0.002;2024-01-25T14:25:31;13.10;99.90
46720;DHT22;32452;51.382;-0.002;2024-01-25T14:28:17;13.00;99.90
46720;DHT22;32452;51.382;-0.002;2024-01-25T14:31:03;12.90;99.90
46720;DHT22;32452;51.382;-0.002;2024-01-25T14:33:49;12.80;99.90
46720;DHT22;32452;51.382;-0.002;2024-01-25T14:36:35;12.80;99.90
46720;DHT22;32452;51.382;-0.002;2024-01-25T14:39:21;12.70;99.90
46720;DHT22;32452;51.382;-0.002;2024-01-25T14:42:10;12.70;99.90
46720;DHT22;32452;51.382;-0.002;2024-01-25T14:44:56;12.70;99.90
46720;DHT22;32452;51.382;-0.002;2024-01-25T14:47:42;12.70;99.90
46720;DHT22;32452;51.382;-0.002;2024-01-25T14:50:28;12.70;99.90
46720;DHT22;32452;51.382;-0.002;2024-01-25T14:53:13;12.70;99.90
46720;DHT22;32452;51.382;-0.002;2024-01-25T14:55:59;12.80;99.90
46720;DHT22;32452;51.382;-0.002;2024-01-25T14:58:45;12.80;99.90
46720;DHT22;32452;51.382;-0.002;2024-01-25T15:01:31;12.90;99.90
46720;DHT22;32452;51.382;-0.002;2024-01-25T15:04:17;13.00;99.90
46720;DHT22;32452;51.382;-0.002;2024-01-25T15:07:04;13.00;99.90
46720;DHT22;32452;51.382;-0.002;2024-01-25T15:09:50;13.00;99.90
46720;DHT22;32452;51.382;-0.002;2024-01-25T15:12:35;13.00;99.90
46720;DHT22;32452;51.382;-0.002;2024-01-25T15:15:21;12.90;99.90
46720;DHT22;32452;51.382;-0.002;2024-01-25T15:18:07;12.90;99.90
46720;DHT22;32452;51.382;-0.002;2024-01-25T15:20:53;12.70;99.90
46720;DHT22;32452;51.382;-0.002;2024-01-25T15:23:39;12.70;99.90
46720;DHT22;32452;51.382;-0.002;2024-01-25T15:26:25;12.50;99.90
46720;DHT22;32452;51.382;-0.002;2024-01-25T15:29:10;12.40;99.90
46720;DHT22;32452;51.382;-0.002;2024-01-25T15:31:56;12.40;99.90
46720;DHT22;32452;51.382;-0.002;2024-01-25T15:34:42;12.30;99.90
46720;DHT22;32452;51.382;-0.002;2024-01-25T15:37:28;12.30;99.90
46720;DHT22;32452;51.382;-0.002;2024-01-25T15:40:14;12.20;99.90
46720;DHT22;32452;51.382;-0.002;2024-01-25T15:43:04;12.30;99.90
46720;DHT22;32452;51.382;-0.002;2024-01-25T15:45:49;12.20;99.90
46720;DHT22;32452;51.382;-0.002;2024-01-25T15:48:36;12.20;99.90
46720;DHT22;32452;51.382;-0.002;2024-01-25T15:51:22;12.20;99.90
46720;DHT22;32452;51.382;-0.002;2024-01-25T15:54:11;12.10;99.90
46720;DHT22;32452;51.382;-0.002;2024-01-25T15:56:57;12.10;99.90
46720;DHT22;32452;51.382;-0.002;2024-01-25T15:59:42;12.10;99.90
46720;DHT22;32452;51.382;-0.002;2024-01-25T16:02:28;12.00;99.90
46720;DHT22;32452;51.382;-0.002;2024-01-25T16:05:14;12.00;99.90
46720;DHT22;32452;51.382;-0.002;2024-01-25T16:08:00;12.00;99.90
46720;DHT22;32452;51.382;-0.002;2024-01-25T16:10:45;12.00;99.90
46720;DHT22;32452;51.382;-0.002;2024-01-25T16:13:31;12.00;99.90
46720;DHT22;32452;51.382;-0.002;2024-01-25T16:16:16;12.00;99.90
46720;DHT22;32452;51.382;-0.002;2024-01-25T16:19:02;12.00;99.90
46720;DHT22;32452;51.382;-0.002;2024-01-25T16:21:50;11.90;99.90
46720;DHT22;32452;51.382;-0.002;2024-01-25T16:24:36;11.90;99.90
46720;DHT22;32452;51.382;-0.002;2024-01-25T16:27:22;11.90;99.90
46720;DHT22;32452;51.382;-0.002;2024-01-25T16:30:08;11.90;99.90
46720;DHT22;32452;51.382;-0.002;2024-01-25T16:32:54;11.90;99.90
46720;DHT22;32452;51.382;-0.002;2024-01-25T16:35:40;11.90;99.90
46720;DHT22;32452;51.382;-0.002;2024-01-25T16:38:26;11.80;99.90
46720;DHT22;32452;51.382;-0.002;2024-01-25T16:41:12;11.80;99.90
46720;DHT22;32452;51.382;-0.002;2024-01-25T16:43:58;11.80;99.90
46720;DHT22;32452;51.382;-0.002;2024-01-25T16:46:43;11.80;99.90
46720;DHT22;32452;51.382;-0.002;2024-01-25T16:49:29;11.80;99.90
46720;DHT22;32452;51.382;-0.002;2024-01-25T16:52:15;11.80;99.90
46720;DHT22;32452;51.382;-0.002;2024-01-25T16:55:01;11.80;99.90
46720;DHT22;32452;51.382;-0.002;2024-01-25T16:57:46;11.80;99.90
46720;DHT22;32452;51.382;-0.002;2024-01-25T17:00:32;11.80;99.90
46720;DHT22;32452;51.382;-0.002;2024-01-25T17:03:19;11.80;99.90
46720;DHT22;32452;51.382;-0.002;2024-01-25T17:06:04;11.80;99.90
46720;DHT22;32452;51.382;-0.002;2024-01-25T17:08:53;11.80;99.90
46720;DHT22;32452;51.382;-0.002;2024-01-25T17:11:39;11.80;99.90
46720;DHT22;32452;51.382;-0.002;2024-01-25T17:14:25;11.80;99.90
46720;DHT22;32452;51.382;-0.002;2024-01-25T17:17:10;11.70;99.90
46720;DHT22;32452;51.382;-0.002;2024-01-25T17:19:56;11.80;99.90
46720;DHT22;32452;51.382;-0.002;2024-01-25T17:22:45;11.80;99.90
46720;DHT22;32452;51.382;-0.002;2024-01-25T17:25:30;11.70;99.90